Time;durP1;ratioP1;P1;durP2;ratioP2;P2;SDS_P1;SDS_P2;PMS_P1;PMS_P2;Temp;Humidity;BMP_temperature;BMP_pressure;BME280_temperature;BME280_humidity;BME280_pressure;Samples;Min_cycle;Max_cycle;Signal;HPM_P1;HPM_P2
2021/03/10 00:00:34;;;;;;;106.05;35.83;;;;;;;-2.15;60.09;101221.83;1738221;81;26123;-79
2021/03/10 00:03:03;;;;;;;107.05;37.75;;;;;;;-2.15;60.26;101221.83;1738758;81;25872;-79
2021/03/10 00:05:31;;;;;;;95.92;33.23;;;;;;;-2.12;60.37;101222.97;1738347;81;25782;-78
2021/03/10 00:07:58;;;;;;;85.40;30.23;;;;;;;-2.16;60.40;101225.40;1738423;81;25721;-78
2021/03/10 00:10:25;;;;;;;83.42;30.65;;;;;;;-2.16;60.66;101222.78;1738236;81;28689;-78
2021/03/10 00:12:53;;;;;;;88.80;32.38;;;;;;;-2.15;60.74;101220.05;1738156;81;26171;-79
2021/03/10 00:15:20;;;;;;;89.22;30.25;;;;;;;-2.14;60.75;101220.45;1750408;81;26327;-79
2021/03/10 00:17:47;;;;;;;77.42;28.98;;;;;;;-2.11;60.81;101225.49;1738378;81;26491;-79
2021/03/10 00:20:17;;;;;;;85.77;29.72;;;;;;;-2.12;60.77;101221.66;1738459;81;25839;-79
2021/03/10 00:22:44;;;;;;;79.03;30.77;;;;;;;-2.19;60.94;101213.77;1738491;81;27537;-79
2021/03/10 00:25:12;;;;;;;83.25;31.20;;;;;;;-2.21;61.14;101215.63;1738087;81;25921;-79
2021/03/10 00:27:41;;;;;;;72.05;28.65;;;;;;;-2.22;61.38;101208.22;1738347;81;25790;-78
2021/03/10 00:30:10;;;;;;;72.03;29.92;;;;;;;-2.26;61.41;101213.28;1734671;81;26417;-79
2021/03/10 00:32:38;;;;;;;64.42;26.75;;;;;;;-2.27;61.44;101219.48;1760138;81;26596;-79
2021/03/10 00:35:08;;;;;;;68.85;30.90;;;;;;;-2.29;61.52;101213.48;1760324;81;27541;-78
2021/03/10 00:37:35;;;;;;;63.80;28.47;;;;;;;-2.29;61.71;101207.38;1738288;81;25730;-78
2021/03/10 00:40:04;;;;;;;69.50;27.35;;;;;;;-2.27;61.93;101209.44;1738095;81;25723;-79
2021/03/10 00:42:31;;;;;;;57.62;24.70;;;;;;;-2.28;61.90;101205.11;1763650;81;26416;-77
2021/03/10 00:44:58;;;;;;;59.65;21.57;;;;;;;-2.32;61.80;101211.48;1738456;81;25979;-78
2021/03/10 00:47:26;;;;;;;57.83;23.70;;;;;;;-2.41;61.94;101208.92;1738279;81;28509;-78
2021/03/10 00:49:53;;;;;;;52.33;22.73;;;;;;;-2.47;62.28;101214.54;1738261;81;25774;-78
2021/03/10 00:52:20;;;;;;;66.42;25.57;;;;;;;-2.47;62.52;101207.52;1738215;81;25879;-79
2021/03/10 00:54:48;;;;;;;78.40;30.37;;;;;;;-2.44;62.73;101211.75;1738199;81;25890;-78
2021/03/10 00:57:15;;;;;;;66.95;26.35;;;;;;;-2.43;62.85;101212.96;1738249;81;25730;-78
2021/03/10 00:59:42;;;;;;;70.85;28.27;;;;;;;-2.43;62.83;101212.11;1713584;81;27026;-81
2021/03/10 01:02:10;;;;;;;64.32;25.35;;;;;;;-2.43;63.13;101210.34;1738193;81;26104;-78
2021/03/10 01:04:37;;;;;;;53.20;23.27;;;;;;;-2.41;63.18;101210.24;1738263;81;25777;-79
2021/03/10 01:07:04;;;;;;;51.10;23.12;;;;;;;-2.39;63.26;101211.84;1714288;81;26470;-79
2021/03/10 01:09:31;;;;;;;48.02;22.93;;;;;;;-2.38;63.32;101206.14;1731501;81;25856;-79
2021/03/10 01:11:59;;;;;;;49.05;22.90;;;;;;;-2.38;63.33;101200.89;1737960;81;27135;-79
2021/03/10 01:14:26;;;;;;;57.20;26.23;;;;;;;-2.37;63.50;101198.17;1712637;81;25952;-78
2021/03/10 01:16:53;;;;;;;55.50;25.62;;;;;;;-2.35;63.57;101193.67;1714357;81;25775;-79
2021/03/10 01:19:21;;;;;;;52.50;25.25;;;;;;;-2.34;63.51;101198.46;1760087;81;25529;-79
2021/03/10 01:21:48;;;;;;;55.67;25.62;;;;;;;-2.39;63.59;101198.73;1738457;81;26390;-79
2021/03/10 01:24:15;;;;;;;52.05;22.40;;;;;;;-2.41;63.78;101195.81;1763716;81;27527;-79
2021/03/10 01:26:43;;;;;;;51.00;21.68;;;;;;;-2.39;63.85;101193.94;1690453;81;26071;-79
2021/03/10 01:29:10;;;;;;;49.95;20.48;;;;;;;-2.41;64.00;101195.35;1759992;81;25679;-78
2021/03/10 01:31:38;;;;;;;56.15;22.70;;;;;;;-2.44;64.13;101199.45;1738030;81;26235;-79
2021/03/10 01:34:05;;;;;;;48.08;22.77;;;;;;;-2.41;64.38;101197.13;1763709;81;25751;-79
2021/03/10 01:36:32;;;;;;;47.93;22.35;;;;;;;-2.39;64.44;101190.86;1738621;81;28457;-79
2021/03/10 01:38:59;;;;;;;47.33;22.02;;;;;;;-2.38;64.40;101189.09;1737614;81;25845;-79
2021/03/10 01:41:27;;;;;;;43.20;19.98;;;;;;;-2.38;64.54;101187.78;1737409;81;25848;-78
2021/03/10 01:43:55;;;;;;;48.65;21.25;;;;;;;-2.44;64.52;101182.41;1738327;81;25713;-78
2021/03/10 01:46:23;;;;;;;49.35;21.55;;;;;;;-2.49;64.66;101184.93;1713973;81;25806;-79
2021/03/10 01:48:50;;;;;;;42.78;20.08;;;;;;;-2.48;64.84;101189.27;1737225;81;27548;-78
2021/03/10 01:51:18;;;;;;;49.75;21.30;;;;;;;-2.48;64.99;101179.59;1738061;81;26312;-78
2021/03/10 01:53:46;;;;;;;50.43;21.93;;;;;;;-2.43;65.09;101174.92;1737166;81;25953;-79
2021/03/10 01:56:15;;;;;;;50.60;24.00;;;;;;;-2.41;65.20;101176.98;1738176;81;25603;-78
2021/03/10 01:58:43;;;;;;;47.10;24.32;;;;;;;-2.37;65.35;101172.39;1738415;81;25798;-79
2021/03/10 02:01:10;;;;;;;49.25;24.15;;;;;;;-2.32;65.40;101170.81;1738186;81;28291;-81
2021/03/10 02:03:38;;;;;;;50.40;23.75;;;;;;;-2.31;65.36;101169.89;1724108;81;25749;-78
2021/03/10 02:06:05;;;;;;;54.90;24.63;;;;;;;-2.32;65.41;101165.56;1738019;81;25876;-79
2021/03/10 02:08:53;;;;;;;50.48;22.35;;;;;;;-2.31;65.43;101164.19;1738319;81;25813;-79
2021/03/10 02:11:37;;;;;;;53.68;23.73;;;;;;;-2.29;65.42;101158.84;1730544;81;25801;-79
2021/03/10 02:14:45;;;;;;;54.03;25.77;;;;;;;-2.27;65.46;101156.97;1763197;80;27551;-79
2021/03/10 02:17:16;;;;;;;53.38;23.25;;;;;;;-2.30;65.52;101155.36;1757363;81;25897;-78
2021/03/10 02:19:57;;;;;;;56.23;23.87;;;;;;;-2.32;65.72;101154.61;1755377;81;25786;-79
2021/03/10 02:22:51;;;;;;;56.80;25.08;;;;;;;-2.33;65.85;101158.65;1745675;81;25885;-79
2021/03/10 02:25:39;;;;;;;55.33;24.45;;;;;;;-2.35;65.94;101161.34;1763521;81;26410;-78
2021/03/10 02:28:07;;;;;;;47.15;21.50;;;;;;;-2.38;65.98;101162.86;1751369;81;27256;-79
2021/03/10 02:30:38;;;;;;;48.00;23.70;;;;;;;-2.44;66.24;101160.11;1736730;81;26488;-78
2021/03/10 02:33:20;;;;;;;53.33;22.77;;;;;;;-2.42;66.39;101164.80;1758989;81;26717;-78
2021/03/10 02:36:02;;;;;;;53.42;24.72;;;;;;;-2.38;66.53;101159.77;1734835;81;26395;-79
2021/03/10 02:38:30;;;;;;;56.70;23.85;;;;;;;-2.34;66.65;101163.05;1757306;81;25749;-79
2021/03/10 02:40:58;;;;;;;54.98;24.85;;;;;;;-2.33;66.76;101162.09;1738153;81;27576;-79
2021/03/10 02:43:26;;;;;;;62.83;28.30;;;;;;;-2.31;66.86;101162.02;1738467;81;25812;-78
2021/03/10 02:45:55;;;;;;;70.75;34.10;;;;;;;-2.25;66.93;101166.44;1738571;81;25648;-78
2021/03/10 02:48:23;;;;;;;72.90;31.95;;;;;;;-2.20;66.94;101166.98;1733007;81;26430;-79
2021/03/10 02:50:54;;;;;;;72.78;32.33;;;;;;;-2.15;66.93;101161.47;1760046;81;25801;-79
2021/03/10 02:53:22;;;;;;;70.75;29.92;;;;;;;-2.12;67.02;101169.17;1737019;81;33439;-79
2021/03/10 02:55:49;;;;;;;55.50;24.47;;;;;;;-2.11;67.08;101165.13;1738254;81;25862;-79
2021/03/10 02:58:17;;;;;;;55.12;24.90;;;;;;;-2.11;67.07;101161.20;1736976;81;26407;-79
2021/03/10 03:00:45;;;;;;;58.75;26.05;;;;;;;-2.09;67.17;101162.41;1754618;80;26408;-79
2021/03/10 03:03:12;;;;;;;65.72;28.45;;;;;;;-2.09;67.12;101163.72;1737986;81;25975;-80
2021/03/10 03:05:39;;;;;;;64.50;27.93;;;;;;;-2.08;67.18;101161.48;1738429;81;27357;-78
2021/03/10 03:08:07;;;;;;;58.38;28.85;;;;;;;-2.07;67.22;101167.09;1738388;81;25687;-79
2021/03/10 03:10:38;;;;;;;66.07;28.65;;;;;;;-2.07;67.25;101160.06;1738559;81;25818;-79
2021/03/10 03:13:10;;;;;;;67.08;32.03;;;;;;;-2.05;67.31;101156.88;1738796;81;26400;-79
2021/03/10 03:15:41;;;;;;;88.95;39.27;;;;;;;-2.02;67.40;101155.86;1736652;81;25379;-79
2021/03/10 03:18:09;;;;;;;94.90;43.35;;;;;;;-1.99;67.50;101155.69;1755438;81;27593;-79
2021/03/10 03:20:37;;;;;;;106.40;45.35;;;;;;;-1.88;67.68;101155.87;1738607;81;26291;-79
2021/03/10 03:23:06;;;;;;;106.80;44.65;;;;;;;-1.88;67.68;101155.87;1736900;81;25806;-79
2021/03/10 03:25:37;;;;;;;113.70;47.38;;;;;;;-1.86;67.43;101156.63;1737743;81;25807;-79
2021/03/10 03:28:07;;;;;;;121.60;48.20;;;;;;;-1.81;67.40;101159.78;1736446;81;25766;-79
2021/03/10 03:30:37;;;;;;;115.55;49.77;;;;;;;-1.79;67.39;101162.70;1717078;82;27528;-80
2021/03/10 03:33:10;;;;;;;115.03;50.52;;;;;;;-1.76;67.42;101159.05;1711603;82;25790;-79
2021/03/10 03:35:38;;;;;;;114.77;51.55;;;;;;;-1.74;67.38;101161.95;1708790;82;25702;-80
2021/03/10 03:38:06;;;;;;;106.67;49.45;;;;;;;-1.72;67.24;101156.59;1686049;81;25780;-79
2021/03/10 03:40:35;;;;;;;118.65;50.65;;;;;;;-1.72;67.21;101154.83;1740491;81;25762;-79
2021/03/10 03:43:09;;;;;;;118.45;51.20;;;;;;;-1.69;67.22;101157.23;1741861;81;27605;-79
2021/03/10 03:45:37;;;;;;;111.80;50.33;;;;;;;-1.68;67.15;101157.62;1766176;80;25877;-79
2021/03/10 03:48:07;;;;;;;99.83;47.95;;;;;;;-1.66;67.01;101164.94;1707985;82;25803;-79
2021/03/10 03:50:34;;;;;;;99.58;47.33;;;;;;;-1.68;66.85;101161.57;1691611;81;25927;-80
2021/03/10 03:53:02;;;;;;;79.95;36.17;;;;;;;-1.71;66.89;101160.93;1739940;81;25777;-79
2021/03/10 03:55:29;;;;;;;71.02;32.45;;;;;;;-1.79;67.15;101153.97;1737471;81;28478;-79
2021/03/10 03:57:56;;;;;;;73.10;32.38;;;;;;;-1.90;67.36;101156.41;1740476;81;25764;-80
2021/03/10 04:00:26;;;;;;;71.65;32.28;;;;;;;-1.96;67.55;101162.03;1739856;81;25818;-79
2021/03/10 04:02:53;;;;;;;63.80;30.88;;;;;;;-1.98;67.63;101162.14;1739529;81;25868;-78
2021/03/10 04:05:22;;;;;;;73.75;35.68;;;;;;;-2.02;67.61;101163.27;1739900;81;25867;-79
2021/03/10 04:07:55;;;;;;;90.00;40.60;;;;;;;-2.07;67.62;101161.38;1706632;82;27535;-79
2021/03/10 04:10:32;;;;;;;92.90;43.35;;;;;;;-2.08;67.39;101162.34;1684355;82;25784;-78
2021/03/10 04:13:00;;;;;;;102.05;45.78;;;;;;;-2.08;67.38;101161.48;1736897;81;25732;-78
2021/03/10 04:15:30;;;;;;;129.10;55.30;;;;;;;-2.08;67.38;101168.05;1738484;81;25799;-78
2021/03/10 04:17:58;;;;;;;131.07;56.50;;;;;;;-2.08;67.33;101161.02;1740205;81;25824;-78
2021/03/10 04:20:26;;;;;;;140.12;59.63;;;;;;;-2.08;67.31;101165.42;1685865;82;27600;-78
2021/03/10 04:22:53;;;;;;;125.38;55.33;;;;;;;-2.10;67.25;101161.59;1720606;82;26454;-79
2021/03/10 04:25:20;;;;;;;106.37;44.25;;;;;;;-2.11;67.33;101165.59;1737507;81;25807;-79
2021/03/10 04:27:48;;;;;;;88.78;41.58;;;;;;;-2.10;67.54;101165.98;1739284;81;25861;-79
2021/03/10 04:30:17;;;;;;;81.72;37.25;;;;;;;-2.13;67.65;101163.53;1735542;81;25721;-78
2021/03/10 04:32:44;;;;;;;88.80;38.78;;;;;;;-2.15;67.72;101165.41;1708509;82;27550;-79
2021/03/10 04:35:12;;;;;;;76.65;34.63;;;;;;;-2.19;67.89;101168.69;1739296;81;25816;-78
2021/03/10 04:37:40;;;;;;;69.80;33.65;;;;;;;-2.22;68.09;101158.86;1729949;81;25760;-79
2021/03/10 04:40:10;;;;;;;74.58;34.60;;;;;;;-2.22;68.25;101162.30;1739588;81;26455;-78
2021/03/10 04:42:39;;;;;;;72.58;35.63;;;;;;;-2.20;68.39;101163.05;1716483;81;26406;-79
2021/03/10 04:45:09;;;;;;;77.42;36.25;;;;;;;-2.21;68.40;101160.53;1740253;81;28436;-78
2021/03/10 04:47:36;;;;;;;73.10;35.15;;;;;;;-2.21;68.39;101164.47;1755076;81;26401;-79
2021/03/10 04:50:09;;;;;;;74.77;35.35;;;;;;;-2.23;68.39;101159.78;1764929;81;25694;-79
2021/03/10 04:52:36;;;;;;;83.17;40.48;;;;;;;-2.27;68.31;101158.28;1708305;82;25837;-79
2021/03/10 04:55:07;;;;;;;91.12;41.77;;;;;;;-2.30;68.35;101163.23;1739558;81;26124;-79
2021/03/10 04:57:35;;;;;;;88.65;44.63;;;;;;;-2.32;68.38;101167.73;1739954;81;28433;-78
2021/03/10 05:00:06;;;;;;;98.72;44.25;;;;;;;-2.32;68.46;101168.19;1740189;81;25722;-79
2021/03/10 05:02:35;;;;;;;92.20;41.55;;;;;;;-2.31;68.51;101173.83;1735067;81;25855;-79
2021/03/10 05:05:05;;;;;;;86.22;41.48;;;;;;;-2.36;68.58;101175.41;1739411;81;26338;-78
2021/03/10 05:07:33;;;;;;;83.17;41.77;;;;;;;-2.42;68.72;101173.97;1756428;81;25834;-79
2021/03/10 05:10:00;;;;;;;78.47;39.08;;;;;;;-2.47;68.75;101177.36;1739519;81;28577;-79
2021/03/10 05:12:30;;;;;;;84.22;39.08;;;;;;;-2.56;68.91;101181.83;1739600;81;25753;-79
2021/03/10 05:15:00;;;;;;;81.75;39.75;;;;;;;-2.59;69.22;101182.48;1732043;82;25659;-79
2021/03/10 05:17:27;;;;;;;89.67;43.15;;;;;;;-2.59;69.39;101181.17;1738566;81;26419;-79
2021/03/10 05:19:56;;;;;;;89.85;41.08;;;;;;;-2.59;69.55;101172.81;1738226;81;25815;-79
2021/03/10 05:22:25;;;;;;;85.90;42.38;;;;;;;-2.56;69.68;101166.55;1738089;81;27535;-79
2021/03/10 05:24:54;;;;;;;96.60;43.98;;;;;;;-2.52;69.71;101167.59;1736938;81;25800;-79
2021/03/10 05:27:22;;;;;;;95.55;48.02;;;;;;;-2.50;69.74;101167.03;1732956;81;25906;-78
2021/03/10 05:29:49;;;;;;;110.85;51.83;;;;;;;-2.49;69.68;101174.44;1737382;81;25830;-79
2021/03/10 05:32:16;;;;;;;114.72;52.03;;;;;;;-2.50;69.75;101169.66;1736545;81;26185;-80
2021/03/10 05:34:44;;;;;;;118.33;54.73;;;;;;;-2.51;69.89;101171.06;1734727;81;27618;-79
2021/03/10 05:37:11;;;;;;;121.62;58.25;;;;;;;-2.48;70.06;101180.08;1737607;81;25922;-78
2021/03/10 05:39:38;;;;;;;113.77;56.98;;;;;;;-2.43;70.15;101178.01;1737030;81;26389;-79
2021/03/10 05:42:06;;;;;;;108.87;54.10;;;;;;;-2.39;70.08;101175.58;1714114;81;25944;-78
2021/03/10 05:44:33;;;;;;;105.63;49.90;;;;;;;-2.36;70.12;101179.34;1737822;81;26169;-81
2021/03/10 05:47:01;;;;;;;111.10;49.48;;;;;;;-2.33;70.26;101180.45;1738495;81;27689;-79
2021/03/10 05:49:28;;;;;;;101.85;46.70;;;;;;;-2.31;70.23;101184.33;1738431;81;25853;-78
2021/03/10 05:51:57;;;;;;;112.45;52.38;;;;;;;-2.32;70.20;101183.94;1738194;81;25770;-79
2021/03/10 05:54:28;;;;;;;100.05;47.05;;;;;;;-2.37;70.20;101182.43;1762242;81;26528;-79
2021/03/10 05:56:57;;;;;;;97.57;46.18;;;;;;;-2.39;70.21;101183.45;1742776;80;25858;-79
2021/03/10 05:59:28;;;;;;;100.80;46.98;;;;;;;-2.43;70.37;101184.11;1738985;80;28565;-78
2021/03/10 06:01:56;;;;;;;98.30;46.60;;;;;;;-2.39;70.51;101186.08;1714866;81;25463;-78
2021/03/10 06:04:24;;;;;;;106.70;48.00;;;;;;;-2.35;70.48;101186.27;1756398;81;25800;-78
2021/03/10 06:06:51;;;;;;;102.82;47.03;;;;;;;-2.31;70.48;101186.95;1745450;80;25812;-79
2021/03/10 06:09:21;;;;;;;105.15;48.48;;;;;;;-2.27;70.50;101192.39;1762538;81;25683;-79
2021/03/10 06:14:39;;;;;;;104.60;49.77;;;;;;;-2.17;70.30;101189.58;1790584;79;25807;-79
2021/03/10 06:17:09;;;;;;;114.12;51.35;;;;;;;-2.18;70.37;101198.41;1745573;80;25732;-78
2021/03/10 06:19:48;;;;;;;116.90;50.85;;;;;;;-2.13;70.39;101205.52;1768249;79;27520;-80
2021/03/10 06:22:17;;;;;;;112.75;49.42;;;;;;;-2.08;70.39;101208.72;1711423;80;25944;-80
2021/03/10 06:24:53;;;;;;;112.00;51.02;;;;;;;-2.04;70.30;101218.09;1720383;81;26428;-79
2021/03/10 06:27:24;;;;;;;119.13;52.98;;;;;;;-2.04;70.30;101218.09;1719088;80;26376;-78
2021/03/10 06:29:59;;;;;;;122.78;55.70;;;;;;;-2.08;70.27;101213.52;1739756;80;25429;-79
2021/03/10 06:32:28;;;;;;;142.87;62.50;;;;;;;-2.09;70.28;101215.75;1772351;80;28448;-78
2021/03/10 06:34:58;;;;;;;153.97;68.47;;;;;;;-2.06;70.48;101217.34;1773379;80;26074;-80
2021/03/10 06:37:29;;;;;;;170.50;74.10;;;;;;;-2.05;70.51;101213.31;1744578;81;25855;-79
2021/03/10 06:40:12;;;;;;;187.53;85.55;;;;;;;-2.05;70.51;101213.31;1773662;80;26408;-79
2021/03/10 06:42:41;;;;;;;189.65;81.12;;;;;;;-1.94;70.72;101221.39;1663739;83;25790;-79
2021/03/10 06:45:10;;;;;;;168.40;70.03;;;;;;;-1.86;70.75;101222.26;1702663;81;27550;-80
2021/03/10 06:47:42;;;;;;;149.93;65.05;;;;;;;-1.79;70.75;101225.72;1664252;83;25777;-79
2021/03/10 06:50:11;;;;;;;158.80;68.05;;;;;;;-1.70;70.77;101226.94;1697700;81;26315;-79
2021/03/10 06:52:42;;;;;;;123.53;54.18;;;;;;;-1.61;70.85;101227.70;1686965;82;25801;-79
2021/03/10 06:55:11;;;;;;;105.92;45.78;;;;;;;-1.51;71.06;101230.13;1715820;82;26374;-79
2021/03/10 06:57:45;;;;;;;91.12;42.45;;;;;;;-1.40;70.63;101234.25;1687505;82;27400;-79
2021/03/10 07:00:22;;;;;;;92.35;40.92;;;;;;;-1.32;70.19;101235.92;1712577;82;25533;-79
2021/03/10 07:02:50;;;;;;;92.75;43.35;;;;;;;-1.24;70.10;101238.91;1660190;82;26442;-79
2021/03/10 07:05:18;;;;;;;93.37;41.98;;;;;;;-1.17;69.81;101239.37;1691052;82;26073;-79
2021/03/10 07:07:47;;;;;;;95.77;44.48;;;;;;;-1.08;69.74;101237.48;1684093;83;25808;-79
2021/03/10 07:10:15;;;;;;;89.95;42.20;;;;;;;-1.01;69.79;101238.33;1719445;82;28406;-78
2021/03/10 07:12:44;;;;;;;88.07;40.28;;;;;;;-0.92;69.64;101242.16;1662813;82;26102;-80
2021/03/10 07:15:14;;;;;;;81.60;38.83;;;;;;;-0.89;69.46;101230.11;1657604;83;25942;-79
2021/03/10 07:17:43;;;;;;;83.60;38.28;;;;;;;-0.77;69.15;101239.36;1679074;83;25932;-79
2021/03/10 07:20:12;;;;;;;80.95;38.80;;;;;;;-0.67;68.97;101245.34;1690655;83;26425;-79
2021/03/10 07:22:48;;;;;;;81.40;36.90;;;;;;;-0.61;68.82;101249.73;1661460;83;27606;-78
2021/03/10 07:25:29;;;;;;;82.40;37.75;;;;;;;-0.52;68.73;101249.14;1693533;83;25888;-78
2021/03/10 07:28:01;;;;;;;85.45;37.63;;;;;;;-0.37;68.61;101248.61;1673175;83;25878;-79
2021/03/10 07:30:40;;;;;;;82.20;37.08;;;;;;;-0.37;68.61;101248.61;1699939;83;25869;-77
2021/03/10 07:33:14;;;;;;;78.80;35.30;;;;;;;-0.32;67.74;101243.89;1633188;85;25811;-79
2021/03/10 07:35:57;;;;;;;77.85;36.00;;;;;;;-0.29;68.06;101231.82;1672444;84;27643;-79
2021/03/10 07:38:40;;;;;;;70.08;33.35;;;;;;;-0.18;67.66;101251.23;1676959;83;26077;-79
2021/03/10 07:41:15;;;;;;;79.82;35.80;;;;;;;-0.11;67.39;101249.86;1700388;83;25706;-78
2021/03/10 07:43:47;;;;;;;85.72;37.65;;;;;;;-0.03;67.33;101245.41;1678152;83;26426;-79
2021/03/10 07:46:34;;;;;;;81.60;33.38;;;;;;;0.05;66.99;101252.30;1678537;83;26168;-79
2021/03/10 07:49:15;;;;;;;74.87;34.45;;;;;;;0.13;66.99;101255.75;1714294;83;27229;-78
2021/03/10 07:51:43;;;;;;;78.17;35.00;;;;;;;0.21;66.81;101259.55;1702713;83;26412;-79
2021/03/10 07:54:25;;;;;;;75.28;35.73;;;;;;;0.28;66.79;101256.84;1655107;85;26156;-78
2021/03/10 07:57:05;;;;;;;75.85;34.33;;;;;;;0.40;66.52;101257.80;1653539;83;26395;-79
2021/03/10 07:59:33;;;;;;;76.95;36.65;;;;;;;0.47;66.20;101261.71;1674058;83;26424;-78
2021/03/10 08:02:09;;;;;;;74.77;34.95;;;;;;;0.52;66.13;101259.58;1697702;83;27552;-79
2021/03/10 08:04:38;;;;;;;79.87;34.33;;;;;;;0.52;66.09;101256.94;1704471;83;25713;-79
2021/03/10 08:07:07;;;;;;;70.62;34.58;;;;;;;0.66;65.86;101264.75;1660981;83;26529;-79
2021/03/10 08:09:35;;;;;;;72.00;34.55;;;;;;;0.72;65.65;101264.31;1677414;83;25745;-79
2021/03/10 08:12:11;;;;;;;70.42;32.98;;;;;;;0.78;65.45;101266.52;1661207;83;25817;-78
2021/03/10 08:14:44;;;;;;;72.82;33.58;;;;;;;0.82;65.42;101264.49;1631813;84;27543;-79
2021/03/10 08:17:27;;;;;;;83.27;38.33;;;;;;;0.91;65.43;101262.06;1669477;83;25851;-78
2021/03/10 08:19:59;;;;;;;73.70;34.85;;;;;;;1.00;65.22;101258.78;1683687;83;25789;-79
2021/03/10 08:22:29;;;;;;;65.52;32.33;;;;;;;1.09;65.31;101263.37;1678686;83;26107;-79
2021/03/10 08:25:02;;;;;;;64.37;31.07;;;;;;;1.20;65.17;101264.77;1678404;82;33077;-78
2021/03/10 08:27:38;;;;;;;64.12;27.60;;;;;;;1.28;64.51;101261.59;1691062;82;27547;-79
2021/03/10 08:30:12;;;;;;;51.88;27.15;;;;;;;1.32;64.39;101260.41;1696203;83;25935;-79
2021/03/10 08:32:40;;;;;;;55.75;26.33;;;;;;;1.40;64.28;101252.77;1708829;82;25830;-79
2021/03/10 08:38:03;;;;;;;54.13;27.17;;;;;;;1.60;63.03;101248.66;1800843;79;25778;-79
2021/03/10 08:40:34;;;;;;;59.30;30.88;;;;;;;1.64;63.34;101250.11;1744175;80;25715;-78
2021/03/10 08:43:02;;;;;;;61.15;30.23;;;;;;;1.72;63.37;101249.06;1722348;82;28591;-79
2021/03/10 08:45:33;;;;;;;63.13;29.92;;;;;;;1.78;62.86;101245.48;1673004;81;25825;-79
2021/03/10 08:48:08;;;;;;;58.98;27.98;;;;;;;1.83;62.90;101249.10;1686408;82;25775;-76
2021/03/10 08:50:42;;;;;;;65.60;32.93;;;;;;;1.90;62.93;101257.79;1716802;81;26201;-76
2021/03/10 08:53:13;;;;;;;75.92;33.80;;;;;;;1.97;62.58;101254.17;1719344;82;26327;-77
2021/03/10 08:55:43;;;;;;;55.17;28.98;;;;;;;2.01;62.28;101247.23;1724728;80;28517;-77
2021/03/10 08:58:13;;;;;;;70.95;31.80;;;;;;;2.10;62.47;101254.93;1705378;80;26181;-79
2021/03/10 09:00:43;;;;;;;66.47;31.77;;;;;;;2.18;62.42;101257.86;1738544;80;25829;-79
2021/03/10 09:03:17;;;;;;;64.97;30.43;;;;;;;2.28;62.19;101254.39;1702201;82;25827;-78
2021/03/10 09:05:48;;;;;;;62.62;31.57;;;;;;;2.33;61.99;101260.65;1671237;83;25795;-78
2021/03/10 09:08:23;;;;;;;62.17;31.48;;;;;;;2.34;61.42;101261.84;1711638;81;27553;-79
2021/03/10 09:10:54;;;;;;;70.10;33.13;;;;;;;2.41;61.98;101264.86;1695088;82;26604;-79
2021/03/10 09:13:34;;;;;;;59.55;29.95;;;;;;;2.52;61.56;101259.59;1776844;79;25714;-79
2021/03/10 09:16:10;;;;;;;62.88;30.15;;;;;;;2.53;61.55;101261.25;1707249;81;25795;-78
2021/03/10 09:18:39;;;;;;;67.85;31.23;;;;;;;2.63;61.77;101265.36;1748875;81;27591;-79
2021/03/10 09:21:08;;;;;;;62.85;30.52;;;;;;;2.72;61.10;101264.61;1741041;80;25778;-79
2021/03/10 09:23:37;;;;;;;56.05;29.20;;;;;;;2.75;61.14;101253.34;1740091;81;25867;-79
2021/03/10 09:26:06;;;;;;;58.65;27.02;;;;;;;2.86;61.03;101257.77;1718053;82;26030;-79
2021/03/10 09:28:40;;;;;;;50.25;26.75;;;;;;;2.90;60.67;101254.77;1743491;80;26148;-77
2021/03/10 09:31:17;;;;;;;57.55;27.93;;;;;;;2.96;60.21;101250.30;1828020;77;26400;-77
2021/03/10 09:33:49;;;;;;;56.42;26.35;;;;;;;2.95;60.40;101256.55;1718934;81;25946;-77
2021/03/10 09:36:26;;;;;;;47.08;24.82;;;;;;;3.02;61.09;101260.87;1738961;80;27686;-78
2021/03/10 09:38:57;;;;;;;54.50;26.33;;;;;;;3.13;60.40;101252.44;1709042;81;26179;-78
2021/03/10 09:41:29;;;;;;;38.25;20.90;;;;;;;3.27;60.57;101261.08;1735742;81;26451;-78
2021/03/10 09:44:06;;;;;;;32.98;17.90;;;;;;;3.42;60.11;101259.84;1737514;81;25825;-79
2021/03/10 09:46:41;;;;;;;37.95;16.90;;;;;;;3.50;58.48;101265.34;1721246;81;25759;-78
2021/03/10 09:49:10;;;;;;;33.98;18.17;;;;;;;3.55;58.09;101263.98;1729925;81;28935;-78
2021/03/10 09:51:48;;;;;;;33.00;17.92;;;;;;;3.62;57.32;101266.50;1697085;81;25825;-78
2021/03/10 09:54:28;;;;;;;27.55;13.32;;;;;;;3.79;57.49;101275.70;1806026;79;25733;-78
2021/03/10 09:56:58;;;;;;;26.12;13.25;;;;;;;3.78;56.62;101275.36;1744213;80;25778;-79
2021/03/10 09:59:35;;;;;;;22.02;11.75;;;;;;;3.92;55.89;101275.05;1790032;79;26250;-79
2021/03/10 10:02:04;;;;;;;19.57;10.03;;;;;;;3.89;55.39;101275.32;1728206;81;25797;-77
2021/03/10 10:04:33;;;;;;;16.48;8.18;;;;;;;3.91;54.56;101270.73;1767145;80;28630;-80
2021/03/10 10:07:02;;;;;;;13.83;7.05;;;;;;;3.89;54.17;101274.81;1738281;81;26080;-79
2021/03/10 10:09:31;;;;;;;17.17;9.28;;;;;;;3.87;53.77;101271.45;1696150;81;26219;-79
2021/03/10 10:12:01;;;;;;;18.25;9.18;;;;;;;3.91;53.28;101278.17;1715083;82;26032;-78
2021/03/10 10:14:30;;;;;;;14.65;7.70;;;;;;;3.93;53.21;101276.23;1736076;80;25350;-79
2021/03/10 10:16:58;;;;;;;15.23;8.43;;;;;;;3.95;53.34;101280.11;1694700;81;27646;-80
2021/03/10 10:19:27;;;;;;;18.17;9.50;;;;;;;3.97;53.11;101279.97;1716469;81;25907;-80
2021/03/10 10:21:55;;;;;;;21.23;10.65;;;;;;;3.98;52.83;101275.86;1696919;81;25848;-79
2021/03/10 10:24:22;;;;;;;18.70;9.55;;;;;;;3.98;52.20;101276.36;1712584;80;25855;-79
2021/03/10 10:26:51;;;;;;;14.78;8.68;;;;;;;4.02;52.89;101280.44;1701207;81;26142;-79
2021/03/10 10:29:20;;;;;;;16.65;9.45;;;;;;;4.07;51.81;101277.75;1715571;80;27609;-78
2021/03/10 10:31:49;;;;;;;17.57;9.35;;;;;;;4.08;52.69;101287.39;1716517;81;26031;-79
2021/03/10 10:34:17;;;;;;;15.85;8.38;;;;;;;4.09;51.78;101283.76;1744974;80;25801;-79
2021/03/10 10:36:46;;;;;;;16.05;7.53;;;;;;;4.09;52.43;101282.91;1697858;81;25750;-78
2021/03/10 10:39:14;;;;;;;15.28;8.23;;;;;;;4.15;51.96;101277.94;1719420;81;26257;-79
2021/03/10 10:41:41;;;;;;;15.78;7.62;;;;;;;4.22;51.38;101276.94;1713693;81;27355;-78
2021/03/10 10:44:09;;;;;;;13.53;7.08;;;;;;;4.27;50.77;101276.07;1748353;80;25756;-78
2021/03/10 10:46:37;;;;;;;14.53;7.70;;;;;;;4.28;50.84;101275.09;1664577;80;26528;-79
2021/03/10 10:49:04;;;;;;;13.90;8.28;;;;;;;4.30;50.80;101269.20;1610533;87;25762;-79
2021/03/10 10:51:33;;;;;;;14.73;8.35;;;;;;;4.34;51.07;101271.42;1665420;84;25786;-79
2021/03/10 10:54:12;;;;;;;14.70;8.83;;;;;;;4.42;50.71;101265.01;1835074;77;25665;-79
2021/03/10 10:56:40;;;;;;;14.68;8.55;;;;;;;4.35;50.06;101257.69;1767700;78;25847;-82
2021/03/10 10:59:10;;;;;;;19.05;8.80;;;;;;;4.34;49.91;101260.00;1793193;78;27532;-79
2021/03/10 11:01:39;;;;;;;15.90;9.08;;;;;;;4.38;50.37;101262.27;1761797;78;26031;-78
2021/03/10 11:04:06;;;;;;;17.32;8.60;;;;;;;4.39;50.40;101260.43;1754159;80;25822;-79
2021/03/10 11:06:34;;;;;;;13.68;8.88;;;;;;;4.41;49.00;101251.38;1729774;81;25887;-79
2021/03/10 11:09:01;;;;;;;19.12;9.85;;;;;;;4.36;49.22;101250.10;1768259;80;25862;-76
2021/03/10 11:11:30;;;;;;;17.92;9.48;;;;;;;4.33;49.29;101245.05;1724393;80;26709;-78
2021/03/10 11:13:58;;;;;;;20.40;10.15;;;;;;;4.35;49.68;101243.95;1719917;80;25758;-78
2021/03/10 11:16:30;;;;;;;19.70;10.30;;;;;;;4.36;49.41;101244.29;1740984;80;25834;-80
2021/03/10 11:19:25;;;;;;;20.90;11.22;;;;;;;4.47;49.93;101245.54;1816590;77;25640;-77
2021/03/10 11:21:55;;;;;;;24.00;12.13;;;;;;;4.49;50.44;101244.10;1745585;80;25926;-79
2021/03/10 11:24:22;;;;;;;21.68;11.10;;;;;;;4.54;48.77;101245.85;1772314;79;27523;-80
2021/03/10 11:26:52;;;;;;;21.77;11.47;;;;;;;4.56;49.41;101251.39;1718116;79;25852;-79
2021/03/10 11:29:22;;;;;;;20.55;11.57;;;;;;;4.59;47.59;101241.00;1730453;79;26457;-77
2021/03/10 11:31:49;;;;;;;23.42;11.63;;;;;;;4.61;49.09;101240.38;1735114;79;25769;-78